Country
Station

 

Weather  for  Owatonna Automatic Weather Observing/Reporting System  -  United States    United States

  
32 °C (90 °F)
    
 
 

Current METAR for Owatonna Automatic Weather Observing/Reporting System is :

KOWA 191718Z AUTO 19014G19KT 10SM SCT022 32/27 A2972 RMK AO2

 

This is a report for Owatonna Automatic Weather Observing/Reporting System - United States.
 
The report was made a moment ago, at 17:18 UTC .
The wind was blowing at a speed of 7.2 meters per second (16.1 miles per hour) with gusts up to 9.8 meters per second (21.9 miles per hour) from south (190°).
 
The temperature was 32 °C (90 °F), with a dew-point at 27 °C (81 °F).
The temperature felt like 43 °C (109 °F).
 
The atmospheric pressure was 1006 hPa (29.72 inHg).
The relative humidity was 75.0%.
 
There were scattered clouds at a height of 671 meters (2200 feet).
 
The overall visibility was 16.1 kilometers (10.0 miles).
 

 
 
 
 

Country :   A   B   C   D   E   F   G   H   I   J   K   L   M   N   O   P   Q   R   S   T   U   V   W   Y   Z

 

Site Info  |  Disclaimer  |  Credits  |  Privacy
Contact us  |  Add to favorites
© 2013-2019 METARs - All rights reserved